Time;durP1;ratioP1;P1;durP2;ratioP2;P2;SDS_P1;SDS_P2;PMS_P1;PMS_P2;Temp;Humidity;BMP_temperature;BMP_pressure;BME280_temperature;BME280_humidity;BME280_pressure;Samples;Min_cycle;Max_cycle;Signal;HPM_P1;HPM_P2
2022/06/06 00:00:35;;;;;;;5.40;2.50;;;17.10;99.90;;;;;;6943185;28;20046;-78
2022/06/06 00:03:57;;;;;;;3.83;2.20;;;17.00;99.90;;;;;;6943359;28;20061;-80
2022/06/06 00:07:20;;;;;;;4.27;2.50;;;17.00;99.90;;;;;;6944060;28;20077;-80
2022/06/06 00:10:43;;;;;;;6.00;2.30;;;16.90;99.90;;;;;;6943209;28;20058;-80
2022/06/06 00:14:08;;;;;;;5.82;2.40;;;17.00;99.90;;;;;;6942011;28;20085;-79
2022/06/06 00:17:30;;;;;;;6.38;2.33;;;16.90;99.90;;;;;;6942648;28;20112;-80
2022/06/06 00:20:52;;;;;;;7.10;2.30;;;16.80;99.90;;;;;;6944470;28;20676;-76
2022/06/06 00:24:15;;;;;;;4.33;2.10;;;16.80;99.90;;;;;;6943209;28;20606;-81
2022/06/06 00:27:37;;;;;;;4.70;2.20;;;16.70;99.90;;;;;;6942121;28;20388;-78
2022/06/06 00:34:48;;;;;;;5.55;2.40;;;16.70;99.90;;;;;;6944162;28;20085;-78
2022/06/06 00:34:54;;;;;;;4.55;2.42;;;16.60;99.90;;;;;;6941205;28;20053;-77
2022/06/06 00:38:16;;;;;;;7.97;2.65;;;16.60;99.90;;;;;;6941687;28;20045;-79
2022/06/06 00:41:39;;;;;;;6.00;2.67;;;16.60;99.90;;;;;;6940700;28;20045;-81
2022/06/06 00:45:32;;;;;;;7.03;2.53;;;16.60;99.90;;;;;;6942410;28;20475;-80
2022/06/06 00:48:55;;;;;;;6.43;2.58;;;16.50;99.90;;;;;;6941938;28;20080;-80
2022/06/06 00:52:24;;;;;;;4.80;2.33;;;16.50;99.90;;;;;;6941281;28;20095;-80
2022/06/06 00:55:56;;;;;;;4.60;2.47;;;16.40;99.90;;;;;;6940003;28;20049;-79
2022/06/06 00:59:22;;;;;;;5.20;2.60;;;16.40;99.90;;;;;;6943335;28;20050;-79
2022/06/06 01:02:48;;;;;;;5.50;2.28;;;16.50;99.90;;;;;;6938340;28;20783;-79
2022/06/06 01:06:16;;;;;;;7.43;2.63;;;16.40;99.90;;;;;;6941454;28;20045;-80
2022/06/06 01:09:39;;;;;;;6.68;2.47;;;16.50;99.90;;;;;;6941085;28;20499;-80
2022/06/06 01:13:03;;;;;;;6.47;2.47;;;16.50;99.90;;;;;;6939967;28;20092;-79
2022/06/06 01:16:38;;;;;;;6.22;2.70;;;16.50;99.90;;;;;;6941870;28;20076;-79
2022/06/06 01:20:14;;;;;;;8.93;2.55;;;16.50;99.90;;;;;;6912041;28;20084;-80
2022/06/06 01:24:15;;;;;;;6.03;2.50;;;16.50;99.90;;;;;;6937701;28;20436;-79
2022/06/06 01:27:49;;;;;;;6.30;2.70;;;16.40;99.90;;;;;;6939646;28;20057;-79
2022/06/06 01:31:20;;;;;;;4.30;2.22;;;16.40;99.90;;;;;;6941554;28;20053;-80
2022/06/06 01:34:44;;;;;;;3.80;2.30;;;16.40;99.90;;;;;;6939851;28;20085;-80
2022/06/06 01:38:08;;;;;;;6.40;2.80;;;16.40;99.90;;;;;;6940023;28;20052;-80
2022/06/06 01:41:48;;;;;;;7.97;3.50;;;16.40;99.90;;;;;;6941163;28;20049;-79
2022/06/06 01:45:19;;;;;;;6.75;3.08;;;16.50;99.90;;;;;;6916907;28;20534;-80
2022/06/06 01:48:44;;;;;;;7.75;2.92;;;16.40;99.90;;;;;;6940062;28;20049;-79
2022/06/06 01:52:10;;;;;;;4.82;2.60;;;16.40;99.90;;;;;;6941704;28;20054;-79
2022/06/06 01:55:35;;;;;;;5.95;2.83;;;16.40;99.90;;;;;;6938651;28;20533;-79
2022/06/06 01:58:58;;;;;;;3.88;2.42;;;16.40;99.90;;;;;;6941903;28;20057;-79
2022/06/06 02:02:20;;;;;;;6.32;2.53;;;16.40;99.90;;;;;;6940662;28;20087;-79
2022/06/06 02:05:44;;;;;;;7.47;2.93;;;16.40;99.90;;;;;;6940559;28;20076;-81
2022/06/06 02:09:06;;;;;;;5.78;2.80;;;16.40;99.90;;;;;;6940360;28;20339;-79
2022/06/06 02:12:28;;;;;;;5.53;2.60;;;16.40;99.90;;;;;;6940089;28;20065;-79
2022/06/06 02:15:51;;;;;;;4.03;2.67;;;16.40;99.90;;;;;;6939710;28;20084;-80
2022/06/06 02:19:13;;;;;;;5.70;2.42;;;16.30;99.90;;;;;;6940018;28;20407;-78
2022/06/06 02:22:37;;;;;;;5.40;2.60;;;16.20;99.90;;;;;;6939492;28;20084;-80
2022/06/06 02:25:59;;;;;;;7.10;2.90;;;16.20;99.90;;;;;;6941227;28;20052;-80
2022/06/06 02:29:21;;;;;;;5.93;2.60;;;16.20;99.90;;;;;;6938693;28;20102;-77
2022/06/06 02:32:44;;;;;;;6.97;2.53;;;16.20;99.90;;;;;;6938438;28;20368;-80
2022/06/06 02:36:06;;;;;;;7.22;3.03;;;16.10;99.90;;;;;;6938241;28;20045;-80
2022/06/06 02:39:30;;;;;;;4.38;2.63;;;16.10;99.90;;;;;;6939012;28;20164;-80
2022/06/06 02:42:52;;;;;;;5.28;3.00;;;16.10;99.90;;;;;;6940831;28;20073;-79
2022/06/06 02:46:14;;;;;;;6.40;2.90;;;16.10;99.90;;;;;;6940197;28;20502;-80
2022/06/06 02:49:36;;;;;;;4.87;2.40;;;16.10;99.90;;;;;;6938426;28;20085;-79
2022/06/06 02:52:59;;;;;;;4.90;2.70;;;16.10;99.90;;;;;;6940083;28;20083;-81
2022/06/06 02:56:23;;;;;;;5.57;2.80;;;16.20;99.90;;;;;;6940108;28;20076;-80
2022/06/06 02:59:48;;;;;;;5.63;2.58;;;16.20;99.90;;;;;;6939476;28;20089;-78
2022/06/06 03:03:11;;;;;;;5.68;2.88;;;16.20;99.90;;;;;;6932279;28;20200;-78
2022/06/06 03:06:44;;;;;;;5.80;2.70;;;16.10;99.90;;;;;;6930059;28;20061;-79
2022/06/06 03:10:19;;;;;;;4.60;2.65;;;16.10;99.90;;;;;;6940825;28;20045;-79
2022/06/06 03:14:13;;;;;;;5.00;2.70;;;16.00;99.90;;;;;;6937315;28;20053;-77
2022/06/06 03:21:41;;;;;;;5.75;2.90;;;16.00;99.90;;;;;;6939542;28;20049;-79
2022/06/06 03:25:14;;;;;;;5.35;2.80;;;15.80;99.90;;;;;;6940384;28;20042;-79
2022/06/06 03:28:53;;;;;;;4.95;2.55;;;15.80;99.90;;;;;;6938141;28;20077;-80
2022/06/06 03:32:24;;;;;;;8.73;3.05;;;15.80;99.90;;;;;;6938888;28;20084;-78
2022/06/06 03:35:56;;;;;;;4.60;2.80;;;15.90;99.90;;;;;;6939322;28;20081;-80
2022/06/06 03:39:28;;;;;;;6.50;3.22;;;16.00;99.90;;;;;;6945411;28;20050;-79
2022/06/06 03:43:01;;;;;;;5.55;3.03;;;16.00;99.90;;;;;;6912282;28;20085;-79
2022/06/06 03:46:34;;;;;;;7.35;2.58;;;16.10;99.90;;;;;;6943687;28;20060;-78
2022/06/06 03:50:09;;;;;;;5.43;2.80;;;16.10;99.90;;;;;;6935926;28;20092;-79
2022/06/06 03:53:41;;;;;;;4.68;2.70;;;16.10;99.90;;;;;;6942253;28;20052;-78
2022/06/06 03:57:16;;;;;;;5.97;2.53;;;16.10;99.90;;;;;;6917446;28;20151;-76
2022/06/06 04:00:42;;;;;;;5.75;2.38;;;16.10;99.90;;;;;;6944087;28;20523;-78
2022/06/06 04:04:06;;;;;;;4.95;2.60;;;16.10;99.90;;;;;;6943554;28;20038;-80
2022/06/06 04:07:28;;;;;;;6.15;2.60;;;16.10;99.90;;;;;;6942807;28;20052;-78
2022/06/06 04:11:04;;;;;;;7.18;2.65;;;16.10;99.90;;;;;;6912829;28;20061;-78
2022/06/06 04:14:43;;;;;;;5.15;2.83;;;16.10;99.90;;;;;;6931096;28;20049;-76
2022/06/06 04:18:12;;;;;;;5.38;2.58;;;16.10;99.90;;;;;;6945385;28;20088;-78
2022/06/06 04:21:47;;;;;;;7.18;2.80;;;16.20;99.90;;;;;;6949097;28;20045;-78
2022/06/06 04:25:24;;;;;;;7.38;2.75;;;16.20;99.90;;;;;;6948365;28;20054;-79
2022/06/06 04:29:00;;;;;;;5.80;3.00;;;16.20;99.90;;;;;;6943105;28;20542;-79
2022/06/06 04:32:40;;;;;;;6.03;2.65;;;16.30;99.90;;;;;;6943274;28;20090;-75
2022/06/06 04:36:12;;;;;;;5.32;2.63;;;16.40;99.90;;;;;;6941154;28;20399;-78
2022/06/06 04:39:45;;;;;;;10.27;2.80;;;16.50;99.90;;;;;;6943032;28;20139;-79
2022/06/06 04:43:15;;;;;;;6.13;3.10;;;16.50;99.90;;;;;;6941902;28;20073;-79
2022/06/06 04:46:46;;;;;;;3.92;2.60;;;16.60;99.90;;;;;;6941402;28;20483;-80
2022/06/06 04:50:12;;;;;;;4.68;2.65;;;16.60;99.90;;;;;;6939409;28;20073;-79
2022/06/06 04:53:41;;;;;;;4.88;2.78;;;16.70;99.90;;;;;;6941840;28;20083;-76
2022/06/06 04:57:06;;;;;;;4.82;2.78;;;16.70;99.90;;;;;;6937147;28;20049;-75
2022/06/06 05:00:28;;;;;;;4.13;2.50;;;16.80;99.90;;;;;;6927908;28;20077;-78
2022/06/06 05:03:50;;;;;;;5.83;2.43;;;16.80;99.90;;;;;;6916133;28;20522;-80
2022/06/06 05:08:01;;;;;;;6.40;3.08;;;16.90;99.90;;;;;;6928580;28;20081;-76
2022/06/06 05:11:39;;;;;;;4.60;2.70;;;16.90;99.90;;;;;;6816768;28;20058;-79
2022/06/06 05:15:22;;;;;;;5.78;2.70;;;16.90;99.90;;;;;;6933673;28;20502;-80
2022/06/06 05:19:06;;;;;;;6.00;2.70;;;16.90;99.90;;;;;;6937758;28;20180;-80
2022/06/06 05:23:00;;;;;;;5.55;2.78;;;16.90;99.90;;;;;;6934775;28;20049;-76
2022/06/06 05:26:55;;;;;;;7.80;2.92;;;16.90;99.90;;;;;;6923464;28;20049;-78
2022/06/06 05:30:22;;;;;;;6.25;3.13;;;17.00;99.90;;;;;;6940977;28;20081;-78
2022/06/06 05:33:54;;;;;;;6.50;2.80;;;17.00;99.90;;;;;;6940227;28;20045;-77
2022/06/06 05:37:35;;;;;;;8.15;3.13;;;17.10;99.90;;;;;;6941106;28;20045;-77
2022/06/06 05:41:12;;;;;;;4.45;2.90;;;17.10;99.90;;;;;;6935778;28;20126;-77
2022/06/06 05:44:48;;;;;;;5.38;2.85;;;17.20;99.90;;;;;;6940695;28;20081;-80
2022/06/06 05:48:37;;;;;;;7.05;2.63;;;17.30;99.90;;;;;;6920841;28;20052;-78
2022/06/06 05:52:18;;;;;;;4.45;2.55;;;17.40;99.90;;;;;;6921778;28;20069;-78
2022/06/06 05:55:56;;;;;;;5.43;2.70;;;17.40;99.90;;;;;;6921743;28;20041;-79
2022/06/06 05:59:55;;;;;;;6.70;3.15;;;17.60;99.90;;;;;;6925628;28;20479;-77
2022/06/06 06:03:55;;;;;;;6.03;2.75;;;17.60;99.90;;;;;;6928528;28;20384;-77
2022/06/06 06:07:28;;;;;;;5.22;2.92;;;17.60;99.90;;;;;;6928050;28;20519;-78
2022/06/06 06:10:59;;;;;;;4.90;2.70;;;17.70;99.90;;;;;;6924624;28;20064;-78
2022/06/06 06:14:34;;;;;;;5.97;2.70;;;17.80;99.90;;;;;;6937052;28;20053;-79
2022/06/06 06:17:58;;;;;;;5.93;2.92;;;17.90;99.90;;;;;;6916165;28;20080;-78
2022/06/06 06:21:25;;;;;;;7.25;2.72;;;17.90;99.90;;;;;;6938694;28;20463;-78
2022/06/06 06:24:51;;;;;;;5.75;2.70;;;18.10;99.90;;;;;;6939020;28;20576;-76
2022/06/06 06:28:14;;;;;;;4.80;2.78;;;18.10;99.90;;;;;;6916975;28;20521;-79
2022/06/06 06:31:51;;;;;;;5.53;3.00;;;18.10;99.90;;;;;;6919637;28;20050;-79
2022/06/06 06:35:21;;;;;;;5.22;3.15;;;18.20;99.90;;;;;;6914801;28;20053;-79
2022/06/06 06:39:10;;;;;;;7.22;3.63;;;18.30;99.90;;;;;;6935520;28;20092;-79
2022/06/06 06:42:59;;;;;;;6.07;3.35;;;18.30;99.90;;;;;;6936986;28;20053;-78
2022/06/06 06:46:27;;;;;;;5.97;3.15;;;18.40;99.90;;;;;;6926374;28;20053;-79
2022/06/06 06:49:55;;;;;;;5.68;3.47;;;18.50;99.90;;;;;;6912111;28;20046;-79
2022/06/06 06:53:43;;;;;;;6.35;3.05;;;18.60;99.90;;;;;;6925177;28;20088;-79
2022/06/06 06:57:25;;;;;;;5.80;3.30;;;18.60;99.90;;;;;;6936810;28;20061;-80
2022/06/06 07:00:53;;;;;;;6.22;3.17;;;18.60;99.90;;;;;;6915813;28;20088;-79
2022/06/06 07:08:34;;;;;;;6.43;3.28;;;18.70;99.90;;;;;;6930439;28;20050;-78
2022/06/06 07:12:28;;;;;;;6.75;3.42;;;18.70;99.90;;;;;;6943381;28;20180;-79
2022/06/06 07:15:55;;;;;;;8.50;3.15;;;18.90;99.90;;;;;;6916840;28;20092;-79
2022/06/06 07:19:22;;;;;;;6.70;3.10;;;19.00;99.90;;;;;;6946123;28;20048;-78
2022/06/06 07:23:03;;;;;;;6.90;3.50;;;19.10;99.90;;;;;;6943315;28;20093;-79
2022/06/06 07:26:26;;;;;;;5.60;3.33;;;19.10;99.90;;;;;;6922975;28;20057;-77
2022/06/06 07:29:50;;;;;;;5.88;3.22;;;19.00;99.90;;;;;;6936927;28;20107;-77
2022/06/06 07:33:29;;;;;;;6.80;3.22;;;19.10;99.90;;;;;;6932374;28;20069;-79
2022/06/06 07:37:08;;;;;;;5.53;2.92;;;19.20;99.90;;;;;;6910818;28;20045;-77
2022/06/06 07:40:43;;;;;;;6.93;3.20;;;19.20;99.90;;;;;;6940581;28;20046;-78
2022/06/06 07:44:36;;;;;;;4.82;2.65;;;19.30;99.90;;;;;;6944139;28;20443;-78
2022/06/06 07:48:35;;;;;;;6.88;3.30;;;19.40;99.90;;;;;;6939063;28;20487;-78
2022/06/06 07:52:06;;;;;;;5.45;2.80;;;19.40;99.90;;;;;;6942544;28;20073;-79
2022/06/06 07:55:32;;;;;;;6.63;3.15;;;19.50;99.90;;;;;;6944248;28;20522;-80
2022/06/06 07:59:06;;;;;;;5.65;2.83;;;19.70;99.90;;;;;;6915015;28;20068;-79
2022/06/06 08:02:50;;;;;;;8.18;3.78;;;19.70;99.90;;;;;;6940106;28;20050;-78
2022/06/06 08:06:31;;;;;;;4.85;2.88;;;19.70;99.90;;;;;;6910351;28;20096;-77
2022/06/06 08:10:19;;;;;;;5.90;3.00;;;19.80;99.90;;;;;;6914400;28;20112;-77
2022/06/06 08:13:50;;;;;;;7.13;3.17;;;19.90;99.90;;;;;;6942399;28;20357;-78
2022/06/06 08:17:26;;;;;;;5.00;2.50;;;20.00;99.90;;;;;;6942627;28;20088;-79
2022/06/06 08:20:56;;;;;;;4.50;2.60;;;20.00;99.90;;;;;;6942125;28;20060;-79
2022/06/06 08:24:25;;;;;;;7.75;2.60;;;20.00;99.70;;;;;;6944275;28;20084;-79
2022/06/06 08:27:51;;;;;;;3.95;2.60;;;20.00;99.90;;;;;;6942020;28;20058;-79
2022/06/06 08:31:13;;;;;;;5.80;3.00;;;20.00;99.60;;;;;;6944072;28;20438;-80
2022/06/06 08:34:35;;;;;;;5.18;2.78;;;19.90;99.30;;;;;;6942013;28;20085;-80
2022/06/06 08:38:22;;;;;;;4.97;2.78;;;20.00;99.90;;;;;;6939262;28;20069;-78
2022/06/06 08:42:25;;;;;;;5.85;3.03;;;20.20;99.90;;;;;;6919009;28;20088;-77
2022/06/06 08:45:52;;;;;;;5.35;2.80;;;20.40;99.40;;;;;;6939138;28;20077;-76
2022/06/06 08:54:12;;;;;;;6.13;2.80;;;20.50;98.70;;;;;;6867913;28;20049;-79
2022/06/06 08:57:58;;;;;;;6.15;3.22;;;20.60;98.80;;;;;;6899604;28;20056;-80
2022/06/06 09:01:40;;;;;;;5.13;2.88;;;20.70;97.70;;;;;;6928837;28;20098;-79
2022/06/06 09:05:55;;;;;;;4.88;2.60;;;20.60;97.60;;;;;;6941908;28;20045;-78
2022/06/06 09:09:59;;;;;;;6.30;2.60;;;20.90;97.80;;;;;;6890648;28;20490;-80
2022/06/06 09:14:07;;;;;;;4.85;2.38;;;21.00;96.90;;;;;;6943516;28;20084;-79
2022/06/06 09:18:18;;;;;;;4.60;2.15;;;21.10;96.70;;;;;;6943716;28;20392;-81
2022/06/06 09:22:00;;;;;;;4.20;2.47;;;21.10;96.10;;;;;;6926129;28;20411;-79
2022/06/06 09:25:37;;;;;;;4.75;2.25;;;21.10;95.50;;;;;;6943738;28;20046;-79
2022/06/06 09:29:41;;;;;;;5.13;2.78;;;21.10;95.80;;;;;;6943911;28;20096;-78
2022/06/06 09:34:13;;;;;;;4.00;2.50;;;21.00;95.90;;;;;;6942928;28;20100;-78
2022/06/06 09:37:46;;;;;;;3.88;2.40;;;21.20;96.20;;;;;;6943368;28;20573;-78
2022/06/06 09:41:28;;;;;;;4.82;2.40;;;21.30;95.80;;;;;;6936924;28;20086;-79
2022/06/06 09:45:29;;;;;;;4.72;2.20;;;21.40;94.90;;;;;;6915927;28;20085;-78
2022/06/06 09:49:48;;;;;;;5.25;2.30;;;21.40;95.90;;;;;;6915967;28;20046;-78
2022/06/06 10:03:02;;;;;;;4.45;1.67;;;21.60;92.20;;;;;;6911813;28;20058;-79
2022/06/06 10:07:30;;;;;;;5.93;1.67;;;21.60;90.30;;;;;;6915434;28;20104;-78
2022/06/06 10:11:26;;;;;;;4.43;2.00;;;21.80;90.20;;;;;;6908517;28;20104;-79
2022/06/06 10:15:10;;;;;;;4.43;1.88;;;21.90;87.30;;;;;;6915747;28;20504;-78
2022/06/06 10:19:03;;;;;;;5.07;1.77;;;21.80;87.50;;;;;;6915291;28;20049;-79
2022/06/06 10:23:09;;;;;;;3.55;1.67;;;21.80;85.90;;;;;;6914990;28;20089;-79
2022/06/06 10:27:05;;;;;;;3.05;1.30;;;21.80;84.80;;;;;;6905588;28;20073;-79
2022/06/06 10:30:38;;;;;;;3.45;1.38;;;21.90;84.20;;;;;;6916768;28;20088;-76
2022/06/06 10:34:27;;;;;;;4.90;1.65;;;22.10;81.80;;;;;;6918809;28;20054;-79
2022/06/06 10:38:01;;;;;;;4.30;1.60;;;22.20;81.80;;;;;;6919184;28;20049;-78
2022/06/06 10:42:08;;;;;;;4.55;1.67;;;22.10;82.60;;;;;;6922674;28;20139;-78
2022/06/06 10:45:38;;;;;;;4.75;1.60;;;22.10;83.60;;;;;;6902962;28;20088;-76
2022/06/06 10:49:22;;;;;;;3.10;1.70;;;22.00;84.20;;;;;;6949325;28;20064;-77
2022/06/06 10:53:24;;;;;;;3.92;1.70;;;21.90;82.90;;;;;;6946086;28;20049;-78
2022/06/06 10:57:26;;;;;;;3.70;1.48;;;21.80;83.70;;;;;;6944100;28;20080;-77
2022/06/06 11:01:43;;;;;;;4.43;1.83;;;21.90;83.80;;;;;;6938923;28;20056;-78
2022/06/06 11:05:58;;;;;;;3.22;1.58;;;22.00;81.80;;;;;;6945371;28;20519;-79
2022/06/06 11:09:47;;;;;;;3.50;1.60;;;22.20;83.30;;;;;;6945245;28;20056;-77
2022/06/06 11:13:38;;;;;;;5.03;1.60;;;22.30;78.10;;;;;;6945885;28;20100;-78
2022/06/06 11:17:51;;;;;;;3.15;1.60;;;22.40;80.20;;;;;;6932460;28;20755;-78
2022/06/06 11:22:00;;;;;;;3.55;1.75;;;22.50;79.60;;;;;;6928630;28;20196;-78
2022/06/06 11:25:23;;;;;;;3.70;1.75;;;22.50;81.30;;;;;;6941077;28;20132;-77
2022/06/06 11:29:24;;;;;;;3.50;1.50;;;22.70;79.60;;;;;;6939706;28;20136;-77
2022/06/06 11:33:29;;;;;;;3.33;1.55;;;22.70;77.20;;;;;;6940003;28;20064;-77
2022/06/06 11:37:58;;;;;;;3.40;1.60;;;22.70;77.90;;;;;;6906456;28;20449;-79
2022/06/06 11:41:49;;;;;;;5.88;3.13;;;22.90;80.00;;;;;;6928812;28;20045;-78
2022/06/06 11:45:43;;;;;;;;;;;23.00;78.50;;;;;;6919325;28;20102;-79
2022/06/06 11:49:55;;;;;;;3.90;2.00;;;23.10;78.00;;;;;;6902846;28;19952;-79
2022/06/06 11:54:02;;;;;;;4.35;2.30;;;23.30;78.10;;;;;;6937101;28;20426;-77
2022/06/06 11:58:13;;;;;;;4.80;2.40;;;23.30;77.60;;;;;;6903231;28;20056;-77
2022/06/06 12:02:33;;;;;;;3.60;1.75;;;23.30;76.20;;;;;;6937391;28;20049;-79
2022/06/06 12:06:42;;;;;;;4.32;1.55;;;23.40;72.60;;;;;;6937601;28;20045;-77
2022/06/06 12:10:15;;;;;;;3.10;1.60;;;23.40;72.60;;;;;;6913491;28;20100;-78
2022/06/06 12:14:02;;;;;;;4.68;1.83;;;23.40;73.10;;;;;;6940509;28;20474;-78
2022/06/06 12:17:39;;;;;;;4.05;1.67;;;23.60;72.20;;;;;;6943842;28;20053;-78
2022/06/06 12:21:32;;;;;;;5.60;1.85;;;23.80;72.60;;;;;;6942585;28;20046;-77
2022/06/06 12:25:21;;;;;;;3.10;1.40;;;24.10;73.30;;;;;;6942376;28;20088;-77
2022/06/06 12:29:38;;;;;;;2.75;1.33;;;24.20;70.20;;;;;;6938588;28;20080;-80
2022/06/06 12:33:03;;;;;;;5.72;1.83;;;24.20;71.10;;;;;;6943680;28;20056;-77
2022/06/06 12:36:35;;;;;;;4.13;1.55;;;24.30;70.20;;;;;;6942451;28;20136;-80
2022/06/06 12:40:10;;;;;;;2.70;1.45;;;24.50;68.20;;;;;;6942633;28;20049;-80
2022/06/06 12:43:53;;;;;;;3.10;1.40;;;24.70;67.70;;;;;;6941673;28;20407;-78
2022/06/06 12:47:44;;;;;;;3.72;1.35;;;24.80;67.40;;;;;;6927502;28;20084;-82
2022/06/06 12:51:19;;;;;;;3.35;1.40;;;24.60;67.10;;;;;;6942245;28;20122;-82
2022/06/06 12:55:31;;;;;;;12.30;1.85;;;24.70;66.40;;;;;;6943781;28;20084;-83
2022/06/06 12:59:17;;;;;;;3.30;1.42;;;24.80;67.40;;;;;;6918141;28;20499;-77
2022/06/06 13:03:06;;;;;;;3.63;1.50;;;24.90;67.00;;;;;;6929011;28;20049;-79
2022/06/06 13:06:46;;;;;;;2.60;1.20;;;25.20;66.60;;;;;;6942173;28;20512;-78
2022/06/06 13:10:20;;;;;;;4.18;1.50;;;25.60;66.70;;;;;;6941610;28;20102;-78
2022/06/06 13:14:02;;;;;;;2.90;1.20;;;25.60;62.80;;;;;;6881713;28;20042;-86
2022/06/06 13:17:34;;;;;;;3.75;1.38;;;25.60;64.20;;;;;;6891864;28;20483;-78
2022/06/06 13:21:05;;;;;;;;;;;25.60;64.30;;;;;;6890744;28;20062;-78
2022/06/06 13:24:59;;;;;;;2.90;1.20;;;25.90;63.60;;;;;;6899017;28;19968;-78
2022/06/06 13:28:27;;;;;;;3.83;1.73;;;26.00;63.80;;;;;;6885991;28;20058;-78
2022/06/06 13:31:57;;;;;;;4.72;1.42;;;25.80;63.40;;;;;;6910495;28;20085;-80
2022/06/06 13:35:26;;;;;;;2.92;1.30;;;25.80;63.20;;;;;;6890214;28;20046;-76
2022/06/06 13:39:05;;;;;;;4.90;2.38;;;25.60;62.60;;;;;;6897505;28;20074;-83
2022/06/06 13:42:59;;;;;;;3.08;1.30;;;25.30;63.30;;;;;;6887877;28;20054;-80
2022/06/06 13:46:38;;;;;;;4.15;1.27;;;25.50;63.70;;;;;;6896322;28;20451;-82
2022/06/06 13:50:16;;;;;;;3.22;1.20;;;25.70;62.90;;;;;;6901290;28;20128;-83
2022/06/06 13:54:01;;;;;;;5.60;1.30;;;26.00;63.00;;;;;;6891674;28;20132;-81
2022/06/06 13:57:30;;;;;;;2.70;1.40;;;26.20;62.90;;;;;;6881765;28;20073;-82
2022/06/06 14:01:07;;;;;;;2.45;1.25;;;26.00;59.80;;;;;;6887341;28;20065;-85
2022/06/06 14:04:59;;;;;;;2.78;1.30;;;26.00;62.60;;;;;;6892263;28;20052;-79
2022/06/06 14:08:22;;;;;;;4.57;1.35;;;26.00;61.70;;;;;;6901655;28;20050;-83
2022/06/06 14:12:07;;;;;;;4.05;1.40;;;26.00;63.00;;;;;;6896287;28;20078;-82
2022/06/06 14:15:29;;;;;;;3.55;1.40;;;26.00;61.80;;;;;;6924492;28;20527;-82
2022/06/06 14:18:55;;;;;;;3.83;1.25;;;25.90;59.10;;;;;;6935755;28;20053;-83
2022/06/06 14:22:28;;;;;;;3.22;1.30;;;25.90;59.70;;;;;;6928268;28;20049;-78
2022/06/06 14:25:55;;;;;;;4.55;1.10;;;26.00;60.80;;;;;;6930507;28;20148;-78
2022/06/06 14:29:28;;;;;;;3.40;1.27;;;26.10;61.70;;;;;;6939791;28;20532;-79
2022/06/06 14:32:59;;;;;;;4.05;1.40;;;26.10;63.20;;;;;;6953460;28;20171;-80
2022/06/06 14:36:27;;;;;;;3.40;1.40;;;26.20;62.60;;;;;;6944537;28;20041;-78
2022/06/06 14:39:52;;;;;;;2.88;1.35;;;26.00;61.60;;;;;;6928375;28;20487;-81
2022/06/06 14:43:15;;;;;;;3.42;1.30;;;26.30;62.80;;;;;;6921909;28;20056;-76
2022/06/06 14:46:49;;;;;;;;;;;26.40;62.00;;;;;;6929653;28;20079;-78
2022/06/06 14:54:03;;;;;;;4.32;1.40;;;26.30;62.40;;;;;;6924542;28;20968;-78
2022/06/06 14:57:28;;;;;;;3.72;1.60;;;26.30;60.80;;;;;;6939345;28;20472;-79
2022/06/06 15:00:55;;;;;;;2.75;1.30;;;25.90;60.80;;;;;;6915507;28;20037;-79
2022/06/06 15:04:23;;;;;;;2.58;1.30;;;25.70;62.50;;;;;;6926856;28;20049;-80
2022/06/06 15:07:53;;;;;;;4.05;1.65;;;25.70;61.70;;;;;;6917033;28;20053;-79
2022/06/06 15:11:20;;;;;;;3.33;1.60;;;25.50;62.10;;;;;;6912250;28;20559;-79
2022/06/06 15:14:42;;;;;;;4.45;1.45;;;25.80;63.30;;;;;;6922957;28;20069;-78
2022/06/06 15:18:06;;;;;;;3.00;1.50;;;26.00;62.90;;;;;;6928510;28;20069;-80
2022/06/06 15:21:36;;;;;;;3.13;1.38;;;26.10;63.00;;;;;;6936669;28;20133;-79
2022/06/06 15:25:00;;;;;;;3.15;1.42;;;25.90;61.90;;;;;;6939718;28;20514;-79
2022/06/06 15:28:32;;;;;;;3.40;1.33;;;25.80;62.50;;;;;;6940482;28;20131;-78
2022/06/06 15:32:08;;;;;;;4.90;1.73;;;25.60;62.60;;;;;;6930981;28;20074;-77
2022/06/06 15:35:44;;;;;;;3.60;1.50;;;25.80;62.90;;;;;;6917144;28;20037;-77
2022/06/06 15:39:27;;;;;;;3.08;1.50;;;25.60;63.10;;;;;;6941261;28;20041;-79
2022/06/06 15:43:05;;;;;;;3.38;1.60;;;25.30;63.20;;;;;;6933684;28;20057;-79
2022/06/06 15:46:54;;;;;;;4.88;1.95;;;25.20;63.90;;;;;;6926398;28;20499;-78
2022/06/06 15:50:41;;;;;;;3.60;1.45;;;25.00;64.40;;;;;;6912997;28;20053;-80
2022/06/06 15:54:29;;;;;;;4.70;1.70;;;24.90;64.50;;;;;;6940961;28;20087;-79
2022/06/06 15:58:15;;;;;;;3.08;1.40;;;24.80;65.30;;;;;;6942238;28;20443;-78
2022/06/06 16:01:48;;;;;;;3.40;1.60;;;25.00;65.10;;;;;;6938879;28;20045;-78
2022/06/06 16:05:20;;;;;;;4.97;1.45;;;25.00;64.30;;;;;;6929880;28;20045;-78
2022/06/06 16:09:00;;;;;;;3.58;1.45;;;24.90;65.20;;;;;;6937141;28;20072;-78
2022/06/06 16:12:47;;;;;;;4.10;1.50;;;24.90;64.60;;;;;;6935220;28;20435;-77
2022/06/06 16:16:24;;;;;;;3.70;1.65;;;24.80;65.00;;;;;;6940423;28;20539;-78
2022/06/06 16:19:51;;;;;;;3.70;1.45;;;24.70;64.10;;;;;;6939574;28;20046;-76
2022/06/06 16:23:21;;;;;;;4.20;1.60;;;24.60;65.50;;;;;;6940952;28;20096;-78
2022/06/06 16:26:49;;;;;;;3.28;1.70;;;24.50;64.70;;;;;;6937893;28;20471;-75
2022/06/06 16:30:21;;;;;;;3.50;1.40;;;24.70;63.30;;;;;;6942782;28;20472;-79
2022/06/06 16:34:24;;;;;;;3.45;1.48;;;25.30;63.70;;;;;;6932508;28;20046;-78
2022/06/06 16:38:08;;;;;;;3.00;1.58;;;25.40;64.60;;;;;;6932923;28;20076;-76
2022/06/06 16:49:12;;;;;;;3.80;1.60;;;25.40;66.90;;;;;;6937869;28;20054;-79
2022/06/06 16:52:49;;;;;;;5.97;1.67;;;25.20;67.00;;;;;;6939263;28;20042;-78
2022/06/06 16:56:23;;;;;;;3.30;1.60;;;25.00;66.90;;;;;;6939340;28;20052;-78
2022/06/06 17:00:02;;;;;;;3.45;1.65;;;24.90;67.70;;;;;;6931108;28;20087;-77
2022/06/06 17:03:31;;;;;;;4.00;1.70;;;24.50;69.20;;;;;;6914399;28;20135;-79
2022/06/06 17:10:44;;;;;;;5.00;1.70;;;24.10;69.50;;;;;;6939100;28;20415;-79
2022/06/06 17:14:15;;;;;;;3.45;1.80;;;24.00;70.60;;;;;;6937998;28;20083;-78
2022/06/06 17:17:50;;;;;;;2.83;1.70;;;23.90;71.10;;;;;;6942293;28;20080;-78
2022/06/06 17:21:45;;;;;;;8.68;1.63;;;23.80;70.70;;;;;;6942308;28;20056;-77
2022/06/06 17:25:43;;;;;;;5.78;1.83;;;23.60;71.20;;;;;;6927051;28;20312;-77
2022/06/06 17:29:15;;;;;;;5.78;2.70;;;23.50;71.40;;;;;;6914271;28;20452;-78
2022/06/06 17:32:48;;;;;;;6.35;2.10;;;23.30;72.60;;;;;;6937219;28;20507;-78
2022/06/06 17:36:26;;;;;;;5.03;1.80;;;23.30;72.30;;;;;;6938271;28;20111;-78
2022/06/06 17:39:50;;;;;;;3.83;1.60;;;23.20;72.70;;;;;;6936044;28;20049;-78
2022/06/06 17:43:17;;;;;;;4.20;1.92;;;23.10;72.50;;;;;;6936479;28;20419;-79
2022/06/06 17:46:47;;;;;;;4.07;1.60;;;23.00;73.70;;;;;;6937882;28;20053;-78
2022/06/06 17:50:22;;;;;;;4.45;1.75;;;23.00;73.30;;;;;;6935716;28;20045;-77
2022/06/06 17:54:00;;;;;;;3.67;1.70;;;23.00;73.90;;;;;;6931746;28;20084;-78
2022/06/06 17:57:36;;;;;;;4.53;1.90;;;22.90;73.30;;;;;;6907231;28;20080;-82
2022/06/06 18:02:00;;;;;;;5.47;1.80;;;22.80;73.90;;;;;;6912192;28;20088;-78
2022/06/06 18:05:46;;;;;;;4.78;1.63;;;22.80;74.40;;;;;;6921278;28;20372;-78
2022/06/06 18:09:46;;;;;;;4.93;1.90;;;22.80;74.60;;;;;;6914565;28;20505;-79
2022/06/06 18:13:39;;;;;;;3.17;1.60;;;22.70;74.70;;;;;;6906722;28;20066;-79
2022/06/06 18:17:19;;;;;;;5.75;1.85;;;22.70;75.20;;;;;;6909967;28;20049;-79
2022/06/06 18:20:54;;;;;;;5.65;1.90;;;22.80;75.90;;;;;;6928562;28;20060;-78
2022/06/06 18:24:23;;;;;;;3.75;1.80;;;22.80;76.10;;;;;;6937175;28;20065;-80
2022/06/06 18:27:46;;;;;;;3.75;1.50;;;22.60;74.90;;;;;;6934312;28;20466;-78
2022/06/06 18:31:19;;;;;;;4.50;1.60;;;22.60;75.10;;;;;;6936654;28;20085;-79
2022/06/06 18:34:57;;;;;;;4.38;1.60;;;22.50;75.80;;;;;;6937941;28;20057;-78
2022/06/06 18:38:26;;;;;;;4.32;2.20;;;22.30;76.00;;;;;;6906115;28;20470;-77
2022/06/06 18:42:00;;;;;;;4.20;1.65;;;22.30;76.40;;;;;;6936392;28;20484;-77
2022/06/06 18:45:25;;;;;;;4.18;1.77;;;22.20;76.70;;;;;;6931999;28;20042;-77
2022/06/06 18:49:04;;;;;;;4.43;1.70;;;22.10;78.10;;;;;;6933771;28;20088;-78
2022/06/06 18:52:32;;;;;;;4.95;1.73;;;22.10;78.50;;;;;;6936252;28;20053;-78
2022/06/06 18:55:59;;;;;;;3.83;1.75;;;22.10;77.90;;;;;;6937603;28;20113;-75
2022/06/06 18:59:32;;;;;;;4.50;1.85;;;22.10;78.60;;;;;;6935866;28;20087;-76
2022/06/06 19:02:56;;;;;;;3.67;1.60;;;22.10;78.60;;;;;;6934583;28;20045;-76
2022/06/06 19:06:29;;;;;;;3.45;1.55;;;22.10;78.90;;;;;;6937996;28;20469;-77
2022/06/06 19:10:14;;;;;;;5.18;1.75;;;22.20;78.90;;;;;;6920773;28;20049;-76
2022/06/06 19:13:36;;;;;;;3.63;1.65;;;22.20;78.10;;;;;;6941542;28;20053;-76
2022/06/06 19:16:58;;;;;;;4.57;1.73;;;22.20;81.90;;;;;;6939046;28;20081;-77
2022/06/06 19:20:26;;;;;;;4.30;1.70;;;22.20;84.80;;;;;;6941897;28;20091;-77
2022/06/06 19:23:53;;;;;;;5.05;1.70;;;22.10;84.90;;;;;;6940636;28;20053;-78
2022/06/06 19:27:29;;;;;;;3.40;1.63;;;22.10;85.20;;;;;;6940284;28;20522;-75
2022/06/06 19:30:51;;;;;;;4.90;1.80;;;22.10;85.60;;;;;;6934141;28;20099;-77